sensor_id;sensor_type;location;lat;lon;timestamp;P1;durP1;ratioP1;P2;durP2;ratioP2
11054;SDS011;5580;50.106;8.702;2024-01-06T00:02:22;10.53;;;3.97;;
11054;SDS011;5580;50.106;8.702;2024-01-06T00:04:47;9.20;;;4.23;;
11054;SDS011;5580;50.106;8.702;2024-01-06T00:07:13;7.67;;;4.00;;
11054;SDS011;5580;50.106;8.702;2024-01-06T00:09:39;9.97;;;4.40;;
11054;SDS011;5580;50.106;8.702;2024-01-06T00:12:05;8.00;;;4.10;;
11054;SDS011;5580;50.106;8.702;2024-01-06T00:14:31;11.30;;;4.20;;
11054;SDS011;5580;50.106;8.702;2024-01-06T00:16:56;9.87;;;4.60;;
11054;SDS011;5580;50.106;8.702;2024-01-06T00:19:22;9.60;;;4.10;;
11054;SDS011;5580;50.106;8.702;2024-01-06T00:21:47;11.10;;;4.87;;
11054;SDS011;5580;50.106;8.702;2024-01-06T00:24:13;8.70;;;4.17;;
11054;SDS011;5580;50.106;8.702;2024-01-06T00:26:38;11.70;;;4.47;;
11054;SDS011;5580;50.106;8.702;2024-01-06T00:29:04;9.20;;;4.10;;
11054;SDS011;5580;50.106;8.702;2024-01-06T00:31:29;12.97;;;4.70;;
11054;SDS011;5580;50.106;8.702;2024-01-06T00:33:55;9.60;;;4.40;;
11054;SDS011;5580;50.106;8.702;2024-01-06T00:36:20;9.03;;;4.50;;
11054;SDS011;5580;50.106;8.702;2024-01-06T00:38:46;11.23;;;4.40;;
11054;SDS011;5580;50.106;8.702;2024-01-06T00:41:13;7.90;;;4.20;;
11054;SDS011;5580;50.106;8.702;2024-01-06T00:43:39;12.97;;;4.83;;
11054;SDS011;5580;50.106;8.702;2024-01-06T00:46:04;8.93;;;4.23;;
11054;SDS011;5580;50.106;8.702;2024-01-06T00:48:30;8.57;;;4.13;;
11054;SDS011;5580;50.106;8.702;2024-01-06T00:50:55;10.70;;;4.47;;
11054;SDS011;5580;50.106;8.702;2024-01-06T00:53:21;10.10;;;4.43;;
11054;SDS011;5580;50.106;8.702;2024-01-06T00:55:47;13.10;;;4.87;;
11054;SDS011;5580;50.106;8.702;2024-01-06T00:58:12;9.90;;;4.30;;
11054;SDS011;5580;50.106;8.702;2024-01-06T01:00:38;8.83;;;4.33;;
11054;SDS011;5580;50.106;8.702;2024-01-06T01:03:04;8.90;;;4.70;;
11054;SDS011;5580;50.106;8.702;2024-01-06T01:05:29;13.80;;;4.73;;
11054;SDS011;5580;50.106;8.702;2024-01-06T01:07:55;8.33;;;4.73;;
11054;SDS011;5580;50.106;8.702;2024-01-06T01:10:20;9.30;;;4.70;;
11054;SDS011;5580;50.106;8.702;2024-01-06T01:12:46;7.83;;;4.50;;
11054;SDS011;5580;50.106;8.702;2024-01-06T01:15:11;10.27;;;4.70;;
11054;SDS011;5580;50.106;8.702;2024-01-06T01:17:37;9.77;;;4.50;;
11054;SDS011;5580;50.106;8.702;2024-01-06T01:20:03;8.33;;;4.30;;
11054;SDS011;5580;50.106;8.702;2024-01-06T01:22:29;10.37;;;4.60;;
11054;SDS011;5580;50.106;8.702;2024-01-06T01:24:55;8.73;;;4.20;;
11054;SDS011;5580;50.106;8.702;2024-01-06T01:27:21;8.27;;;4.30;;
11054;SDS011;5580;50.106;8.702;2024-01-06T01:29:46;9.87;;;4.53;;
11054;SDS011;5580;50.106;8.702;2024-01-06T01:32:13;11.60;;;4.57;;
11054;SDS011;5580;50.106;8.702;2024-01-06T01:34:38;7.03;;;4.00;;
11054;SDS011;5580;50.106;8.702;2024-01-06T01:37:04;8.80;;;4.40;;
11054;SDS011;5580;50.106;8.702;2024-01-06T01:39:30;10.57;;;4.50;;
11054;SDS011;5580;50.106;8.702;2024-01-06T01:41:55;9.13;;;4.47;;
11054;SDS011;5580;50.106;8.702;2024-01-06T01:44:21;9.73;;;4.30;;
11054;SDS011;5580;50.106;8.702;2024-01-06T01:46:46;11.13;;;4.23;;
11054;SDS011;5580;50.106;8.702;2024-01-06T01:49:12;9.30;;;4.43;;
11054;SDS011;5580;50.106;8.702;2024-01-06T01:51:38;7.73;;;4.20;;
11054;SDS011;5580;50.106;8.702;2024-01-06T01:54:05;12.63;;;4.47;;
11054;SDS011;5580;50.106;8.702;2024-01-06T01:56:31;11.10;;;4.60;;
11054;SDS011;5580;50.106;8.702;2024-01-06T01:59:13;8.33;;;4.33;;
11054;SDS011;5580;50.106;8.702;2024-01-06T02:01:42;8.10;;;4.40;;
11054;SDS011;5580;50.106;8.702;2024-01-06T02:04:08;10.43;;;4.30;;
11054;SDS011;5580;50.106;8.702;2024-01-06T02:06:34;7.63;;;4.20;;
11054;SDS011;5580;50.106;8.702;2024-01-06T02:09:00;8.83;;;4.27;;
11054;SDS011;5580;50.106;8.702;2024-01-06T02:11:26;10.27;;;4.00;;
11054;SDS011;5580;50.106;8.702;2024-01-06T02:13:51;8.40;;;4.27;;
11054;SDS011;5580;50.106;8.702;2024-01-06T02:16:17;8.17;;;4.43;;
11054;SDS011;5580;50.106;8.702;2024-01-06T02:18:42;9.37;;;4.53;;
11054;SDS011;5580;50.106;8.702;2024-01-06T02:21:08;13.00;;;5.03;;
11054;SDS011;5580;50.106;8.702;2024-01-06T02:23:35;8.93;;;4.40;;
11054;SDS011;5580;50.106;8.702;2024-01-06T02:26:01;8.23;;;4.47;;
11054;SDS011;5580;50.106;8.702;2024-01-06T02:28:28;8.90;;;4.33;;
11054;SDS011;5580;50.106;8.702;2024-01-06T02:30:53;9.20;;;4.20;;
11054;SDS011;5580;50.106;8.702;2024-01-06T02:33:19;11.03;;;4.50;;
11054;SDS011;5580;50.106;8.702;2024-01-06T02:35:45;8.87;;;4.30;;
11054;SDS011;5580;50.106;8.702;2024-01-06T02:38:11;9.93;;;4.50;;
11054;SDS011;5580;50.106;8.702;2024-01-06T02:40:37;10.57;;;4.60;;
11054;SDS011;5580;50.106;8.702;2024-01-06T02:43:02;10.43;;;4.60;;
11054;SDS011;5580;50.106;8.702;2024-01-06T02:45:28;9.27;;;4.50;;
11054;SDS011;5580;50.106;8.702;2024-01-06T02:47:53;9.83;;;4.50;;
11054;SDS011;5580;50.106;8.702;2024-01-06T02:50:19;11.37;;;4.77;;
11054;SDS011;5580;50.106;8.702;2024-01-06T02:52:45;7.57;;;4.50;;
11054;SDS011;5580;50.106;8.702;2024-01-06T02:55:10;8.70;;;4.53;;
11054;SDS011;5580;50.106;8.702;2024-01-06T02:57:37;8.77;;;4.50;;
11054;SDS011;5580;50.106;8.702;2024-01-06T03:00:03;8.97;;;4.47;;
11054;SDS011;5580;50.106;8.702;2024-01-06T03:02:29;9.40;;;4.37;;
11054;SDS011;5580;50.106;8.702;2024-01-06T03:04:54;8.97;;;4.57;;
11054;SDS011;5580;50.106;8.702;2024-01-06T03:07:21;12.00;;;4.70;;
11054;SDS011;5580;50.106;8.702;2024-01-06T03:09:47;9.60;;;4.77;;
11054;SDS011;5580;50.106;8.702;2024-01-06T03:12:12;10.10;;;4.50;;
11054;SDS011;5580;50.106;8.702;2024-01-06T03:14:38;12.20;;;4.80;;
11054;SDS011;5580;50.106;8.702;2024-01-06T03:17:03;13.60;;;5.00;;
11054;SDS011;5580;50.106;8.702;2024-01-06T03:19:30;11.17;;;4.50;;
11054;SDS011;5580;50.106;8.702;2024-01-06T03:21:56;9.73;;;4.30;;
11054;SDS011;5580;50.106;8.702;2024-01-06T03:24:22;11.97;;;5.17;;
11054;SDS011;5580;50.106;8.702;2024-01-06T03:26:49;7.97;;;4.13;;
11054;SDS011;5580;50.106;8.702;2024-01-06T03:29:14;9.47;;;4.30;;
11054;SDS011;5580;50.106;8.702;2024-01-06T03:31:43;9.20;;;4.60;;
11054;SDS011;5580;50.106;8.702;2024-01-06T03:34:09;8.10;;;4.47;;
11054;SDS011;5580;50.106;8.702;2024-01-06T03:36:36;8.80;;;4.37;;
11054;SDS011;5580;50.106;8.702;2024-01-06T03:39:02;9.37;;;4.77;;
11054;SDS011;5580;50.106;8.702;2024-01-06T03:41:28;10.00;;;4.30;;
11054;SDS011;5580;50.106;8.702;2024-01-06T03:43:53;10.83;;;4.40;;
11054;SDS011;5580;50.106;8.702;2024-01-06T03:46:19;9.27;;;4.27;;
11054;SDS011;5580;50.106;8.702;2024-01-06T03:48:44;8.57;;;4.50;;
11054;SDS011;5580;50.106;8.702;2024-01-06T03:51:12;8.57;;;4.60;;
11054;SDS011;5580;50.106;8.702;2024-01-06T03:53:37;9.80;;;4.50;;
11054;SDS011;5580;50.106;8.702;2024-01-06T03:56:03;9.43;;;4.40;;
11054;SDS011;5580;50.106;8.702;2024-01-06T03:58:29;12.10;;;4.70;;
11054;SDS011;5580;50.106;8.702;2024-01-06T04:00:55;10.20;;;4.53;;
11054;SDS011;5580;50.106;8.702;2024-01-06T04:03:20;10.87;;;5.17;;
11054;SDS011;5580;50.106;8.702;2024-01-06T04:05:46;8.53;;;4.70;;
11054;SDS011;5580;50.106;8.702;2024-01-06T04:08:11;8.27;;;4.40;;
11054;SDS011;5580;50.106;8.702;2024-01-06T04:10:37;9.93;;;4.30;;
11054;SDS011;5580;50.106;8.702;2024-01-06T04:13:03;10.27;;;4.77;;
11054;SDS011;5580;50.106;8.702;2024-01-06T04:15:29;12.97;;;4.40;;
11054;SDS011;5580;50.106;8.702;2024-01-06T04:17:55;10.07;;;4.40;;
11054;SDS011;5580;50.106;8.702;2024-01-06T04:20:20;8.40;;;4.33;;
11054;SDS011;5580;50.106;8.702;2024-01-06T04:22:46;10.00;;;4.50;;
11054;SDS011;5580;50.106;8.702;2024-01-06T04:25:11;10.90;;;4.97;;
11054;SDS011;5580;50.106;8.702;2024-01-06T04:27:37;10.67;;;4.93;;
11054;SDS011;5580;50.106;8.702;2024-01-06T04:30:02;11.23;;;4.80;;
11054;SDS011;5580;50.106;8.702;2024-01-06T04:32:28;11.00;;;4.33;;
11054;SDS011;5580;50.106;8.702;2024-01-06T04:34:54;12.10;;;4.60;;
11054;SDS011;5580;50.106;8.702;2024-01-06T04:37:21;8.83;;;4.60;;
11054;SDS011;5580;50.106;8.702;2024-01-06T04:39:47;8.63;;;4.30;;
11054;SDS011;5580;50.106;8.702;2024-01-06T04:42:12;11.30;;;4.40;;
11054;SDS011;5580;50.106;8.702;2024-01-06T04:44:38;9.70;;;4.60;;
11054;SDS011;5580;50.106;8.702;2024-01-06T04:47:03;10.77;;;4.57;;
11054;SDS011;5580;50.106;8.702;2024-01-06T04:49:29;9.00;;;4.20;;
11054;SDS011;5580;50.106;8.702;2024-01-06T04:51:54;11.17;;;4.33;;
11054;SDS011;5580;50.106;8.702;2024-01-06T04:54:21;7.97;;;4.10;;
11054;SDS011;5580;50.106;8.702;2024-01-06T04:56:46;10.97;;;4.40;;
11054;SDS011;5580;50.106;8.702;2024-01-06T04:59:12;10.67;;;4.30;;
11054;SDS011;5580;50.106;8.702;2024-01-06T05:01:38;9.30;;;3.93;;
11054;SDS011;5580;50.106;8.702;2024-01-06T05:04:04;6.90;;;4.30;;
11054;SDS011;5580;50.106;8.702;2024-01-06T05:06:30;8.30;;;4.57;;
11054;SDS011;5580;50.106;8.702;2024-01-06T05:08:56;9.67;;;4.70;;
11054;SDS011;5580;50.106;8.702;2024-01-06T05:11:22;7.93;;;4.60;;
11054;SDS011;5580;50.106;8.702;2024-01-06T05:13:47;9.87;;;4.63;;
11054;SDS011;5580;50.106;8.702;2024-01-06T05:16:13;9.10;;;4.50;;
11054;SDS011;5580;50.106;8.702;2024-01-06T05:18:38;10.67;;;4.40;;
11054;SDS011;5580;50.106;8.702;2024-01-06T05:21:04;10.13;;;4.30;;
11054;SDS011;5580;50.106;8.702;2024-01-06T05:23:30;7.33;;;4.23;;
11054;SDS011;5580;50.106;8.702;2024-01-06T05:25:55;11.97;;;4.50;;
11054;SDS011;5580;50.106;8.702;2024-01-06T05:28:21;10.70;;;4.87;;
11054;SDS011;5580;50.106;8.702;2024-01-06T05:30:46;11.77;;;4.90;;
11054;SDS011;5580;50.106;8.702;2024-01-06T05:33:12;8.50;;;4.63;;
11054;SDS011;5580;50.106;8.702;2024-01-06T05:35:38;6.00;;;4.23;;
11054;SDS011;5580;50.106;8.702;2024-01-06T05:38:04;9.80;;;4.53;;
11054;SDS011;5580;50.106;8.702;2024-01-06T05:40:30;9.90;;;4.67;;
11054;SDS011;5580;50.106;8.702;2024-01-06T05:42:55;10.07;;;4.73;;
11054;SDS011;5580;50.106;8.702;2024-01-06T05:45:22;9.00;;;4.43;;
11054;SDS011;5580;50.106;8.702;2024-01-06T05:47:48;9.40;;;4.80;;
11054;SDS011;5580;50.106;8.702;2024-01-06T05:50:17;12.77;;;4.80;;
11054;SDS011;5580;50.106;8.702;2024-01-06T05:52:42;9.47;;;4.93;;
11054;SDS011;5580;50.106;8.702;2024-01-06T05:55:08;8.63;;;4.60;;
11054;SDS011;5580;50.106;8.702;2024-01-06T05:57:34;12.20;;;4.83;;
11054;SDS011;5580;50.106;8.702;2024-01-06T06:00:00;9.27;;;4.70;;
11054;SDS011;5580;50.106;8.702;2024-01-06T06:02:26;12.70;;;4.93;;
11054;SDS011;5580;50.106;8.702;2024-01-06T06:04:51;9.60;;;4.67;;
11054;SDS011;5580;50.106;8.702;2024-01-06T06:07:17;9.30;;;4.70;;
11054;SDS011;5580;50.106;8.702;2024-01-06T06:09:43;7.93;;;5.03;;
11054;SDS011;5580;50.106;8.702;2024-01-06T06:12:12;11.80;;;4.97;;
11054;SDS011;5580;50.106;8.702;2024-01-06T06:14:38;10.83;;;4.60;;
11054;SDS011;5580;50.106;8.702;2024-01-06T06:17:04;8.30;;;4.60;;
11054;SDS011;5580;50.106;8.702;2024-01-06T06:19:29;12.93;;;4.87;;
11054;SDS011;5580;50.106;8.702;2024-01-06T06:21:55;8.23;;;4.97;;
11054;SDS011;5580;50.106;8.702;2024-01-06T06:24:20;7.73;;;4.60;;
11054;SDS011;5580;50.106;8.702;2024-01-06T06:26:46;10.47;;;4.70;;
11054;SDS011;5580;50.106;8.702;2024-01-06T06:29:11;10.70;;;5.33;;
11054;SDS011;5580;50.106;8.702;2024-01-06T06:31:37;10.37;;;5.40;;
11054;SDS011;5580;50.106;8.702;2024-01-06T06:34:03;10.70;;;5.13;;
11054;SDS011;5580;50.106;8.702;2024-01-06T06:36:28;12.47;;;5.00;;
11054;SDS011;5580;50.106;8.702;2024-01-06T06:38:54;9.80;;;4.90;;
11054;SDS011;5580;50.106;8.702;2024-01-06T06:41:19;8.70;;;4.60;;
11054;SDS011;5580;50.106;8.702;2024-01-06T06:43:45;10.13;;;5.00;;
11054;SDS011;5580;50.106;8.702;2024-01-06T06:46:11;13.10;;;5.07;;
11054;SDS011;5580;50.106;8.702;2024-01-06T06:48:36;8.47;;;4.63;;
11054;SDS011;5580;50.106;8.702;2024-01-06T06:51:02;11.73;;;5.10;;
11054;SDS011;5580;50.106;8.702;2024-01-06T06:53:28;10.50;;;4.73;;
11054;SDS011;5580;50.106;8.702;2024-01-06T06:55:53;10.37;;;4.97;;
11054;SDS011;5580;50.106;8.702;2024-01-06T06:58:19;9.73;;;4.70;;
11054;SDS011;5580;50.106;8.702;2024-01-06T07:00:44;8.87;;;4.30;;
11054;SDS011;5580;50.106;8.702;2024-01-06T07:03:10;10.30;;;5.10;;
11054;SDS011;5580;50.106;8.702;2024-01-06T07:05:35;6.63;;;4.13;;
11054;SDS011;5580;50.106;8.702;2024-01-06T07:08:01;7.33;;;4.70;;
11054;SDS011;5580;50.106;8.702;2024-01-06T07:10:27;8.10;;;4.83;;
11054;SDS011;5580;50.106;8.702;2024-01-06T07:12:53;9.10;;;4.70;;
11054;SDS011;5580;50.106;8.702;2024-01-06T07:15:18;7.40;;;4.57;;
11054;SDS011;5580;50.106;8.702;2024-01-06T07:17:44;9.10;;;4.57;;
11054;SDS011;5580;50.106;8.702;2024-01-06T07:20:09;7.20;;;4.13;;
11054;SDS011;5580;50.106;8.702;2024-01-06T07:22:36;8.13;;;4.53;;
11054;SDS011;5580;50.106;8.702;2024-01-06T07:25:01;10.10;;;4.80;;
11054;SDS011;5580;50.106;8.702;2024-01-06T07:27:27;10.40;;;4.80;;
11054;SDS011;5580;50.106;8.702;2024-01-06T07:29:53;8.87;;;4.60;;
11054;SDS011;5580;50.106;8.702;2024-01-06T07:32:20;11.03;;;5.27;;
11054;SDS011;5580;50.106;8.702;2024-01-06T07:34:47;10.50;;;4.37;;
11054;SDS011;5580;50.106;8.702;2024-01-06T07:37:12;9.63;;;5.00;;
11054;SDS011;5580;50.106;8.702;2024-01-06T07:39:38;11.57;;;5.10;;
11054;SDS011;5580;50.106;8.702;2024-01-06T07:42:03;9.03;;;5.30;;
11054;SDS011;5580;50.106;8.702;2024-01-06T07:44:29;8.10;;;4.93;;
11054;SDS011;5580;50.106;8.702;2024-01-06T07:46:54;13.77;;;5.10;;
11054;SDS011;5580;50.106;8.702;2024-01-06T07:49:20;11.43;;;4.90;;
11054;SDS011;5580;50.106;8.702;2024-01-06T07:51:46;9.70;;;4.90;;
11054;SDS011;5580;50.106;8.702;2024-01-06T07:54:11;8.30;;;4.60;;
11054;SDS011;5580;50.106;8.702;2024-01-06T07:56:37;10.30;;;4.70;;
11054;SDS011;5580;50.106;8.702;2024-01-06T07:59:04;11.73;;;5.00;;
11054;SDS011;5580;50.106;8.702;2024-01-06T08:01:30;10.40;;;4.67;;
11054;SDS011;5580;50.106;8.702;2024-01-06T08:03:56;8.60;;;4.73;;
11054;SDS011;5580;50.106;8.702;2024-01-06T08:06:22;9.60;;;4.87;;
11054;SDS011;5580;50.106;8.702;2024-01-06T08:08:48;10.83;;;5.23;;
11054;SDS011;5580;50.106;8.702;2024-01-06T08:11:13;13.57;;;5.30;;
11054;SDS011;5580;50.106;8.702;2024-01-06T08:13:39;10.00;;;4.87;;
11054;SDS011;5580;50.106;8.702;2024-01-06T08:16:04;8.40;;;5.00;;
11054;SDS011;5580;50.106;8.702;2024-01-06T08:18:30;11.10;;;4.97;;
11054;SDS011;5580;50.106;8.702;2024-01-06T08:20:56;11.13;;;5.33;;
11054;SDS011;5580;50.106;8.702;2024-01-06T08:23:21;11.33;;;4.97;;
11054;SDS011;5580;50.106;8.702;2024-01-06T08:25:47;12.57;;;4.97;;
11054;SDS011;5580;50.106;8.702;2024-01-06T08:28:13;9.97;;;5.17;;
11054;SDS011;5580;50.106;8.702;2024-01-06T08:30:40;11.10;;;5.53;;
11054;SDS011;5580;50.106;8.702;2024-01-06T08:33:06;12.13;;;5.27;;
11054;SDS011;5580;50.106;8.702;2024-01-06T08:35:31;12.83;;;5.30;;
11054;SDS011;5580;50.106;8.702;2024-01-06T08:37:57;9.20;;;5.53;;
11054;SDS011;5580;50.106;8.702;2024-01-06T08:40:23;13.13;;;5.40;;
11054;SDS011;5580;50.106;8.702;2024-01-06T08:42:49;9.20;;;5.20;;
11054;SDS011;5580;50.106;8.702;2024-01-06T08:45:14;11.40;;;5.43;;
11054;SDS011;5580;50.106;8.702;2024-01-06T08:47:40;11.50;;;5.50;;
11054;SDS011;5580;50.106;8.702;2024-01-06T08:50:06;11.30;;;5.60;;
11054;SDS011;5580;50.106;8.702;2024-01-06T08:52:32;10.20;;;5.50;;
11054;SDS011;5580;50.106;8.702;2024-01-06T08:54:57;10.30;;;5.23;;
11054;SDS011;5580;50.106;8.702;2024-01-06T08:57:23;11.03;;;5.80;;
11054;SDS011;5580;50.106;8.702;2024-01-06T08:59:48;9.63;;;5.70;;
11054;SDS011;5580;50.106;8.702;2024-01-06T09:02:14;10.17;;;5.60;;
11054;SDS011;5580;50.106;8.702;2024-01-06T09:04:39;12.00;;;6.03;;
11054;SDS011;5580;50.106;8.702;2024-01-06T09:07:05;13.80;;;6.03;;
11054;SDS011;5580;50.106;8.702;2024-01-06T09:09:31;12.63;;;6.00;;
11054;SDS011;5580;50.106;8.702;2024-01-06T09:11:56;10.90;;;5.83;;
11054;SDS011;5580;50.106;8.702;2024-01-06T09:14:22;9.83;;;5.87;;
11054;SDS011;5580;50.106;8.702;2024-01-06T09:16:48;11.57;;;5.97;;
11054;SDS011;5580;50.106;8.702;2024-01-06T09:19:13;11.10;;;5.97;;
11054;SDS011;5580;50.106;8.702;2024-01-06T09:21:39;13.23;;;6.17;;
11054;SDS011;5580;50.106;8.702;2024-01-06T09:24:04;11.40;;;6.10;;
11054;SDS011;5580;50.106;8.702;2024-01-06T09:26:34;11.13;;;5.83;;
11054;SDS011;5580;50.106;8.702;2024-01-06T09:29:00;11.57;;;6.23;;
11054;SDS011;5580;50.106;8.702;2024-01-06T09:31:26;15.07;;;6.47;;
11054;SDS011;5580;50.106;8.702;2024-01-06T09:33:52;13.53;;;6.50;;
11054;SDS011;5580;50.106;8.702;2024-01-06T09:36:17;13.80;;;6.00;;
11054;SDS011;5580;50.106;8.702;2024-01-06T09:38:43;10.30;;;6.23;;
11054;SDS011;5580;50.106;8.702;2024-01-06T09:41:09;11.37;;;6.07;;
11054;SDS011;5580;50.106;8.702;2024-01-06T09:43:35;12.67;;;6.63;;
11054;SDS011;5580;50.106;8.702;2024-01-06T09:46:05;12.33;;;6.40;;
11054;SDS011;5580;50.106;8.702;2024-01-06T09:48:52;12.57;;;6.23;;
11054;SDS011;5580;50.106;8.702;2024-01-06T09:51:19;12.13;;;6.60;;
11054;SDS011;5580;50.106;8.702;2024-01-06T09:54:04;12.93;;;6.60;;
11054;SDS011;5580;50.106;8.702;2024-01-06T09:56:34;12.13;;;5.87;;
11054;SDS011;5580;50.106;8.702;2024-01-06T09:59:00;12.50;;;6.30;;
11054;SDS011;5580;50.106;8.702;2024-01-06T10:01:26;12.83;;;6.50;;
11054;SDS011;5580;50.106;8.702;2024-01-06T10:03:52;10.53;;;6.17;;
11054;SDS011;5580;50.106;8.702;2024-01-06T10:06:18;13.03;;;6.50;;
11054;SDS011;5580;50.106;8.702;2024-01-06T10:08:48;10.23;;;6.27;;
11054;SDS011;5580;50.106;8.702;2024-01-06T10:11:15;11.93;;;6.37;;
11054;SDS011;5580;50.106;8.702;2024-01-06T10:13:41;10.73;;;6.33;;
11054;SDS011;5580;50.106;8.702;2024-01-06T10:16:07;13.27;;;6.53;;
11054;SDS011;5580;50.106;8.702;2024-01-06T10:18:33;11.13;;;6.60;;
11054;SDS011;5580;50.106;8.702;2024-01-06T10:21:02;14.13;;;6.87;;
11054;SDS011;5580;50.106;8.702;2024-01-06T10:23:29;11.73;;;6.57;;
11054;SDS011;5580;50.106;8.702;2024-01-06T10:25:56;14.67;;;6.67;;
11054;SDS011;5580;50.106;8.702;2024-01-06T10:28:22;12.93;;;6.93;;
11054;SDS011;5580;50.106;8.702;2024-01-06T10:30:48;12.87;;;6.80;;
11054;SDS011;5580;50.106;8.702;2024-01-06T10:33:16;12.13;;;6.27;;
11054;SDS011;5580;50.106;8.702;2024-01-06T10:35:42;12.00;;;6.57;;
11054;SDS011;5580;50.106;8.702;2024-01-06T10:38:07;10.37;;;6.73;;
11054;SDS011;5580;50.106;8.702;2024-01-06T10:40:33;12.17;;;6.73;;
11054;SDS011;5580;50.106;8.702;2024-01-06T10:42:59;13.37;;;6.27;;
11054;SDS011;5580;50.106;8.702;2024-01-06T10:45:26;12.67;;;7.00;;
11054;SDS011;5580;50.106;8.702;2024-01-06T10:47:53;15.47;;;7.47;;
11054;SDS011;5580;50.106;8.702;2024-01-06T10:50:20;13.10;;;6.63;;
11054;SDS011;5580;50.106;8.702;2024-01-06T10:52:47;12.47;;;6.57;;
11054;SDS011;5580;50.106;8.702;2024-01-06T10:55:14;10.80;;;6.60;;
11054;SDS011;5580;50.106;8.702;2024-01-06T10:57:43;12.03;;;6.97;;
11054;SDS011;5580;50.106;8.702;2024-01-06T11:00:12;16.20;;;7.27;;
11054;SDS011;5580;50.106;8.702;2024-01-06T11:02:38;14.23;;;7.20;;
11054;SDS011;5580;50.106;8.702;2024-01-06T11:05:05;12.50;;;6.87;;
11054;SDS011;5580;50.106;8.702;2024-01-06T11:07:35;11.30;;;6.53;;
11054;SDS011;5580;50.106;8.702;2024-01-06T11:12:42;12.50;;;7.07;;
11054;SDS011;5580;50.106;8.702;2024-01-06T11:15:08;12.47;;;6.83;;
11054;SDS011;5580;50.106;8.702;2024-01-06T11:17:49;13.37;;;7.03;;
11054;SDS011;5580;50.106;8.702;2024-01-06T11:20:18;13.40;;;6.93;;
11054;SDS011;5580;50.106;8.702;2024-01-06T11:22:46;13.43;;;7.10;;
11054;SDS011;5580;50.106;8.702;2024-01-06T11:25:15;15.03;;;7.20;;
11054;SDS011;5580;50.106;8.702;2024-01-06T11:27:45;13.70;;;7.20;;
11054;SDS011;5580;50.106;8.702;2024-01-06T11:30:21;12.87;;;7.27;;
11054;SDS011;5580;50.106;8.702;2024-01-06T11:32:48;12.97;;;6.93;;
11054;SDS011;5580;50.106;8.702;2024-01-06T11:35:25;12.87;;;7.27;;
11054;SDS011;5580;50.106;8.702;2024-01-06T11:37:54;16.63;;;7.73;;
11054;SDS011;5580;50.106;8.702;2024-01-06T11:42:56;13.33;;;6.80;;
11054;SDS011;5580;50.106;8.702;2024-01-06T11:45:23;12.03;;;7.03;;
11054;SDS011;5580;50.106;8.702;2024-01-06T11:47:49;13.33;;;7.20;;
11054;SDS011;5580;50.106;8.702;2024-01-06T11:50:23;12.60;;;7.43;;
11054;SDS011;5580;50.106;8.702;2024-01-06T11:52:53;12.80;;;7.40;;
11054;SDS011;5580;50.106;8.702;2024-01-06T11:55:20;13.40;;;7.30;;
11054;SDS011;5580;50.106;8.702;2024-01-06T11:57:46;14.47;;;7.67;;
11054;SDS011;5580;50.106;8.702;2024-01-06T12:00:13;13.87;;;7.77;;
11054;SDS011;5580;50.106;8.702;2024-01-06T12:02:39;11.83;;;7.63;;
11054;SDS011;5580;50.106;8.702;2024-01-06T12:05:05;14.03;;;8.27;;
11054;SDS011;5580;50.106;8.702;2024-01-06T12:07:36;13.33;;;7.90;;
11054;SDS011;5580;50.106;8.702;2024-01-06T12:10:02;13.63;;;7.87;;
11054;SDS011;5580;50.106;8.702;2024-01-06T12:12:29;13.33;;;8.27;;
11054;SDS011;5580;50.106;8.702;2024-01-06T12:14:54;15.80;;;8.60;;
11054;SDS011;5580;50.106;8.702;2024-01-06T12:17:20;14.47;;;8.17;;
11054;SDS011;5580;50.106;8.702;2024-01-06T12:19:47;14.43;;;8.73;;
11054;SDS011;5580;50.106;8.702;2024-01-06T12:22:13;13.10;;;7.83;;
11054;SDS011;5580;50.106;8.702;2024-01-06T12:24:40;13.00;;;7.80;;
11054;SDS011;5580;50.106;8.702;2024-01-06T12:27:07;12.23;;;7.83;;
11054;SDS011;5580;50.106;8.702;2024-01-06T12:29:37;13.97;;;7.80;;
11054;SDS011;5580;50.106;8.702;2024-01-06T12:32:06;14.93;;;8.10;;
11054;SDS011;5580;50.106;8.702;2024-01-06T12:34:33;15.13;;;8.10;;
11054;SDS011;5580;50.106;8.702;2024-01-06T12:36:59;13.23;;;7.17;;
11054;SDS011;5580;50.106;8.702;2024-01-06T12:39:27;12.63;;;7.53;;
11054;SDS011;5580;50.106;8.702;2024-01-06T12:41:54;12.57;;;7.10;;
11054;SDS011;5580;50.106;8.702;2024-01-06T12:44:20;12.43;;;7.40;;
11054;SDS011;5580;50.106;8.702;2024-01-06T12:46:46;11.77;;;7.13;;
11054;SDS011;5580;50.106;8.702;2024-01-06T12:49:12;10.17;;;6.60;;
11054;SDS011;5580;50.106;8.702;2024-01-06T12:51:39;12.40;;;7.00;;
11054;SDS011;5580;50.106;8.702;2024-01-06T12:54:05;11.17;;;6.57;;
11054;SDS011;5580;50.106;8.702;2024-01-06T12:56:31;11.17;;;6.33;;
11054;SDS011;5580;50.106;8.702;2024-01-06T12:58:56;12.30;;;6.40;;
11054;SDS011;5580;50.106;8.702;2024-01-06T13:01:22;11.83;;;6.67;;
11054;SDS011;5580;50.106;8.702;2024-01-06T13:03:47;12.27;;;6.57;;
11054;SDS011;5580;50.106;8.702;2024-01-06T13:06:13;12.20;;;6.70;;
11054;SDS011;5580;50.106;8.702;2024-01-06T13:08:40;12.27;;;6.60;;
11054;SDS011;5580;50.106;8.702;2024-01-06T13:11:06;13.87;;;6.33;;
11054;SDS011;5580;50.106;8.702;2024-01-06T13:13:32;11.47;;;6.50;;
11054;SDS011;5580;50.106;8.702;2024-01-06T13:15:58;10.10;;;6.20;;
11054;SDS011;5580;50.106;8.702;2024-01-06T13:18:26;11.30;;;6.43;;
11054;SDS011;5580;50.106;8.702;2024-01-06T13:20:53;12.57;;;6.63;;
11054;SDS011;5580;50.106;8.702;2024-01-06T13:23:18;10.40;;;6.67;;
11054;SDS011;5580;50.106;8.702;2024-01-06T13:25:44;11.13;;;6.57;;
11054;SDS011;5580;50.106;8.702;2024-01-06T13:28:10;12.10;;;6.60;;
11054;SDS011;5580;50.106;8.702;2024-01-06T13:30:37;10.23;;;6.40;;
11054;SDS011;5580;50.106;8.702;2024-01-06T13:33:04;11.87;;;6.43;;
11054;SDS011;5580;50.106;8.702;2024-01-06T13:35:30;12.03;;;6.60;;
11054;SDS011;5580;50.106;8.702;2024-01-06T13:37:56;12.23;;;6.63;;
11054;SDS011;5580;50.106;8.702;2024-01-06T13:40:22;12.47;;;6.10;;
11054;SDS011;5580;50.106;8.702;2024-01-06T13:42:48;11.70;;;6.47;;
11054;SDS011;5580;50.106;8.702;2024-01-06T13:45:15;10.90;;;6.70;;
11054;SDS011;5580;50.106;8.702;2024-01-06T13:47:41;10.70;;;6.40;;
11054;SDS011;5580;50.106;8.702;2024-01-06T13:50:09;11.50;;;6.87;;
11054;SDS011;5580;50.106;8.702;2024-01-06T13:52:39;10.43;;;6.67;;
11054;SDS011;5580;50.106;8.702;2024-01-06T13:55:05;12.10;;;6.57;;
11054;SDS011;5580;50.106;8.702;2024-01-06T13:57:31;11.67;;;6.93;;
11054;SDS011;5580;50.106;8.702;2024-01-06T13:59:57;11.70;;;7.13;;
11054;SDS011;5580;50.106;8.702;2024-01-06T14:02:23;11.30;;;7.03;;
11054;SDS011;5580;50.106;8.702;2024-01-06T14:04:49;13.53;;;7.40;;
11054;SDS011;5580;50.106;8.702;2024-01-06T14:07:16;11.87;;;7.03;;
11054;SDS011;5580;50.106;8.702;2024-01-06T14:09:48;12.47;;;7.03;;
11054;SDS011;5580;50.106;8.702;2024-01-06T14:12:13;10.50;;;6.47;;
11054;SDS011;5580;50.106;8.702;2024-01-06T14:14:39;10.70;;;6.73;;
11054;SDS011;5580;50.106;8.702;2024-01-06T14:17:07;12.40;;;7.40;;
11054;SDS011;5580;50.106;8.702;2024-01-06T14:19:33;12.13;;;7.03;;
11054;SDS011;5580;50.106;8.702;2024-01-06T14:21:58;12.13;;;7.00;;
11054;SDS011;5580;50.106;8.702;2024-01-06T14:24:24;11.97;;;6.80;;
11054;SDS011;5580;50.106;8.702;2024-01-06T14:26:50;13.30;;;7.77;;
11054;SDS011;5580;50.106;8.702;2024-01-06T14:29:18;12.07;;;7.43;;
11054;SDS011;5580;50.106;8.702;2024-01-06T14:31:44;13.83;;;7.53;;
11054;SDS011;5580;50.106;8.702;2024-01-06T14:34:10;14.30;;;7.80;;
11054;SDS011;5580;50.106;8.702;2024-01-06T14:36:35;12.47;;;7.17;;
11054;SDS011;5580;50.106;8.702;2024-01-06T14:39:01;11.70;;;7.27;;
11054;SDS011;5580;50.106;8.702;2024-01-06T14:41:28;12.93;;;7.33;;
11054;SDS011;5580;50.106;8.702;2024-01-06T14:43:54;12.10;;;7.67;;
11054;SDS011;5580;50.106;8.702;2024-01-06T14:46:20;14.80;;;7.30;;
11054;SDS011;5580;50.106;8.702;2024-01-06T14:48:45;12.60;;;7.13;;
11054;SDS011;5580;50.106;8.702;2024-01-06T14:51:11;12.53;;;7.50;;
11054;SDS011;5580;50.106;8.702;2024-01-06T14:53:36;12.73;;;6.83;;